Currently 73°F in Riverside (Presidential Park), California, USA
73°F
77°F / 73°F
2 mph W
0.00"
Wednesday, June 29, 2022 2:26 AM PDT

Riverside (Presidential Park), California Weather Summary
Last 36 Hours

Temperature Winds Hourly Humidity Dewpoint
Time Report Norm Report Norm Max Gusts Precip. Rpt. Norm Rpt. Norm Pressure
1Wed 02:26 AM  72.7°F  67°F  2 mph W  1 mph  4 mph  0.00"  56%  71%  55°F  57°F  29.98"
3Wed 02:10 AM  72.6°F  67°F  2 mph W  1 mph  3 mph  ----  54%  70%  54°F  57°F  29.98"
Wed 02:00 AM  73.0°F  67°F  1 mph W  1 mph  2 mph  0.00"  51%  70%  53°F  57°F  29.99"
Wed 01:00 AM  74.4°F  68°F  calm  1 mph  3 mph  0.00"  48%  68%  53°F  57°F  29.99"
2Wed 12:08 AM  76.7°F  69°F  calm  2 mph  3 mph  ----  47%  65%  54°F  57°F  29.99"
Wed 12:00 AM  76.5°F  70°F  1 mph SE  2 mph  5 mph  0.00"  47%  65%  54°F  57°F  30.00"
Tue 11:00 PM  78.2°F  71°F  4 mph W  2 mph  8 mph  0.00"  43%  61%  53°F  57°F  30.00"
Tue 10:00 PM  81.2°F  73°F  4 mph SW  3 mph  7 mph  0.00"  34%  57%  49°F  56°F  29.99"
Tue 09:00 PM  83.9°F  75°F  4 mph W  4 mph  8 mph  0.00"  30%  52%  48°F  56°F  29.96"
Tue 08:00 PM  87.5°F  79°F  5 mph W  5 mph  11 mph  0.00"  22%  45%  43°F  55°F  29.94"
Tue 07:00 PM  91.0°F  82°F  7 mph W  7 mph  18 mph  0.00"  16%  40%  37°F  54°F  29.92"
Tue 06:00 PM  92.6°F  84°F  7 mph W  8 mph  22 mph  0.00"  13%  36%  34°F  54°F  29.91"
Tue 05:00 PM  93.8°F  86°F  10 mph SW  8 mph  21 mph  0.00"  11%  34%  30°F  53°F  29.92"
Tue 04:00 PM  94.7°F  88°F  10 mph W  8 mph  20 mph  0.00"  14%  32%  36°F  53°F  29.93"
Tue 03:00 PM  95.4°F  88°F  8 mph W  8 mph  19 mph  0.00"  12%  32%  33°F  53°F  29.94"
Tue 02:00 PM  95.5°F  88°F  8 mph W  7 mph  18 mph  0.00"  13%  33%  36°F  54°F  29.96"
Tue 01:00 PM  94.2°F  86°F  9 mph W  5 mph  15 mph  0.00"  14%  36%  36°F  55°F  29.97"
Tue 12:00 PM  92.1°F  82°F  3 mph W  4 mph  13 mph  0.00"  19%  42%  42°F  56°F  29.99"
Tue 11:00 AM  89.4°F  79°F  2 mph W  3 mph  9 mph  0.00"  20%  49%  42°F  58°F  30.00"
Tue 10:00 AM  85.3°F  75°F  4 mph NW  3 mph  6 mph  0.00"  28%  58%  47°F  59°F  30.00"
Tue 09:00 AM  81.3°F  71°F  4 mph W  2 mph  6 mph  0.00"  35%  66%  50°F  59°F  30.01"
Tue 08:00 AM  76.6°F  67°F  calm  1 mph  4 mph  0.00"  41%  73%  50°F  58°F  30.00"
Tue 07:00 AM  70.9°F  65°F  calm  1 mph  2 mph  0.00"  49%  77%  50°F  57°F  29.99"
Tue 06:00 AM  69.6°F  64°F  1 mph SE  1 mph  3 mph  0.00"  48%  78%  48°F  56°F  29.98"
Tue 05:00 AM  70.1°F  64°F  calm  1 mph  5 mph  0.00"  48%  76%  49°F  56°F  29.98"
Tue 04:00 AM  71.4°F  65°F  calm  1 mph  3 mph  0.00"  45%  75%  48°F  56°F  29.98"
Tue 03:00 AM  73.1°F  66°F  1 mph SE  1 mph  3 mph  0.00"  44%  73%  49°F  57°F  29.99"
Tue 02:00 AM  74.5°F  67°F  calm  1 mph  3 mph  0.00"  42%  71%  49°F  57°F  30.00"
Tue 01:00 AM  76.3°F  68°F  calm  1 mph  3 mph  0.00"  39%  68%  49°F  57°F  30.00"
Tue 12:00 AM  78.1°F  69°F  1 mph SE  2 mph  3 mph  0.00"  37%  65%  49°F  57°F  30.00"
Mon 11:00 PM  81.2°F  71°F  calm  2 mph  6 mph  0.00"  32%  62%  48°F  57°F  30.00"
Mon 10:00 PM  83.4°F  73°F  1 mph W  3 mph  7 mph  0.00"  29%  58%  47°F  57°F  29.99"
Mon 09:00 PM  85.7°F  75°F  5 mph W  4 mph  10 mph  0.00"  26%  52%  46°F  56°F  29.98"
Mon 08:00 PM  89.7°F  78°F  3 mph W  5 mph  12 mph  0.00"  16%  46%  35°F  55°F  29.96"
Mon 07:00 PM  91.6°F  82°F  6 mph SW  7 mph  18 mph  0.00"  11%  40%  28°F  54°F  29.94"
Mon 06:00 PM  93.2°F  84°F  9 mph SW  8 mph  21 mph  0.00"  13%  37%  34°F  54°F  29.92"
Mon 05:00 PM  95.2°F  86°F  10 mph W  8 mph  21 mph  0.00"  13%  34%  34°F  53°F  29.91"
Mon 04:00 PM  97.1°F  87°F  14 mph SW  8 mph  21 mph  0.00"  15%  32%  40°F  53°F  29.91"
Mon 03:00 PM  98.7°F  88°F  8 mph SW  8 mph  20 mph  0.00"  17%  32%  45°F  54°F  29.92"

  1. Current weather data. No green row appears if the current weather data is also the high or low for the current day.
  2. High temperature for the current day.
  3. Low temperature for the current day.

The Riverside (Presidential Park), California weather pages are a service of WeatherCurrents.
Copyright ©2022  WeatherCurrents. All rights reserved. - Submit questions and comments - Privacy Policy

This page automatically refreshes every 10 minutes.